sensor_id;sensor_type;location;lat;lon;timestamp;P1;durP1;ratioP1;P2;durP2;ratioP2
8640;SDS011;4358;42.100;25.222;2023-06-22T00:00:49;8.10;;;7.30;;
8640;SDS011;4358;42.100;25.222;2023-06-22T00:03:16;10.90;;;8.87;;
8640;SDS011;4358;42.100;25.222;2023-06-22T00:05:44;9.67;;;7.87;;
8640;SDS011;4358;42.100;25.222;2023-06-22T00:08:11;8.03;;;7.23;;
8640;SDS011;4358;42.100;25.222;2023-06-22T00:10:39;8.80;;;7.90;;
8640;SDS011;4358;42.100;25.222;2023-06-22T00:13:07;10.30;;;7.70;;
8640;SDS011;4358;42.100;25.222;2023-06-22T00:15:34;10.70;;;9.70;;
8640;SDS011;4358;42.100;25.222;2023-06-22T00:18:01;10.10;;;9.10;;
8640;SDS011;4358;42.100;25.222;2023-06-22T00:20:28;9.67;;;7.80;;
8640;SDS011;4358;42.100;25.222;2023-06-22T00:22:55;8.00;;;7.20;;
8640;SDS011;4358;42.100;25.222;2023-06-22T00:25:23;8.93;;;7.00;;
8640;SDS011;4358;42.100;25.222;2023-06-22T00:27:52;7.53;;;6.80;;
8640;SDS011;4358;42.100;25.222;2023-06-22T00:30:19;7.47;;;6.77;;
8640;SDS011;4358;42.100;25.222;2023-06-22T00:32:45;7.73;;;6.93;;
8640;SDS011;4358;42.100;25.222;2023-06-22T00:35:12;8.80;;;7.53;;
8640;SDS011;4358;42.100;25.222;2023-06-22T00:37:39;11.93;;;9.20;;
8640;SDS011;4358;42.100;25.222;2023-06-22T00:40:07;11.43;;;10.23;;
8640;SDS011;4358;42.100;25.222;2023-06-22T00:42:36;14.73;;;13.10;;
8640;SDS011;4358;42.100;25.222;2023-06-22T00:45:05;18.30;;;14.90;;
8640;SDS011;4358;42.100;25.222;2023-06-22T00:47:32;14.40;;;11.90;;
8640;SDS011;4358;42.100;25.222;2023-06-22T00:50:00;13.40;;;11.93;;
8640;SDS011;4358;42.100;25.222;2023-06-22T00:52:28;11.43;;;10.23;;
8640;SDS011;4358;42.100;25.222;2023-06-22T00:54:58;11.23;;;9.43;;
8640;SDS011;4358;42.100;25.222;2023-06-22T00:57:28;19.33;;;16.93;;
8640;SDS011;4358;42.100;25.222;2023-06-22T00:59:55;15.07;;;13.47;;
8640;SDS011;4358;42.100;25.222;2023-06-22T01:02:23;10.50;;;9.30;;
8640;SDS011;4358;42.100;25.222;2023-06-22T01:04:50;8.90;;;8.00;;
8640;SDS011;4358;42.100;25.222;2023-06-22T01:07:19;7.30;;;6.60;;
8640;SDS011;4358;42.100;25.222;2023-06-22T01:09:59;7.73;;;6.50;;
8640;SDS011;4358;42.100;25.222;2023-06-22T01:12:34;9.30;;;7.53;;
8640;SDS011;4358;42.100;25.222;2023-06-22T01:15:08;11.77;;;7.57;;
8640;SDS011;4358;42.100;25.222;2023-06-22T01:17:40;7.00;;;6.30;;
8640;SDS011;4358;42.100;25.222;2023-06-22T01:20:09;5.90;;;5.33;;
8640;SDS011;4358;42.100;25.222;2023-06-22T01:22:46;6.83;;;6.13;;
8640;SDS011;4358;42.100;25.222;2023-06-22T01:25:26;6.23;;;5.63;;
8640;SDS011;4358;42.100;25.222;2023-06-22T01:28:11;6.60;;;6.00;;
8640;SDS011;4358;42.100;25.222;2023-06-22T01:30:53;6.37;;;5.77;;
8640;SDS011;4358;42.100;25.222;2023-06-22T01:33:28;6.43;;;5.83;;
8640;SDS011;4358;42.100;25.222;2023-06-22T01:35:57;6.43;;;5.80;;
8640;SDS011;4358;42.100;25.222;2023-06-22T01:38:26;6.60;;;6.00;;
8640;SDS011;4358;42.100;25.222;2023-06-22T01:40:55;6.87;;;6.17;;
8640;SDS011;4358;42.100;25.222;2023-06-22T01:43:24;6.63;;;5.90;;
8640;SDS011;4358;42.100;25.222;2023-06-22T01:45:54;6.53;;;5.93;;
8640;SDS011;4358;42.100;25.222;2023-06-22T01:48:22;8.33;;;7.43;;
8640;SDS011;4358;42.100;25.222;2023-06-22T01:50:51;13.77;;;12.20;;
8640;SDS011;4358;42.100;25.222;2023-06-22T01:53:20;13.97;;;12.47;;
8640;SDS011;4358;42.100;25.222;2023-06-22T01:55:47;11.20;;;10.10;;
8640;SDS011;4358;42.100;25.222;2023-06-22T01:58:14;12.10;;;10.87;;
8640;SDS011;4358;42.100;25.222;2023-06-22T02:00:43;10.83;;;9.80;;
8640;SDS011;4358;42.100;25.222;2023-06-22T02:03:17;12.30;;;11.00;;
8640;SDS011;4358;42.100;25.222;2023-06-22T02:05:49;15.27;;;13.67;;
8640;SDS011;4358;42.100;25.222;2023-06-22T02:08:19;19.57;;;15.23;;
8640;SDS011;4358;42.100;25.222;2023-06-22T02:10:48;23.43;;;19.50;;
8640;SDS011;4358;42.100;25.222;2023-06-22T02:13:17;22.53;;;18.50;;
8640;SDS011;4358;42.100;25.222;2023-06-22T02:15:45;21.63;;;18.00;;
8640;SDS011;4358;42.100;25.222;2023-06-22T02:18:13;18.47;;;16.10;;
8640;SDS011;4358;42.100;25.222;2023-06-22T02:20:41;19.40;;;16.60;;
8640;SDS011;4358;42.100;25.222;2023-06-22T02:23:09;19.57;;;17.47;;
8640;SDS011;4358;42.100;25.222;2023-06-22T02:25:36;14.77;;;13.20;;
8640;SDS011;4358;42.100;25.222;2023-06-22T02:28:03;13.33;;;11.93;;
8640;SDS011;4358;42.100;25.222;2023-06-22T02:30:30;10.23;;;9.23;;
8640;SDS011;4358;42.100;25.222;2023-06-22T02:32:58;9.23;;;8.23;;
8640;SDS011;4358;42.100;25.222;2023-06-22T02:35:26;14.33;;;12.63;;
8640;SDS011;4358;42.100;25.222;2023-06-22T02:37:58;20.60;;;16.40;;
8640;SDS011;4358;42.100;25.222;2023-06-22T02:40:26;14.47;;;12.20;;
8640;SDS011;4358;42.100;25.222;2023-06-22T02:42:52;11.60;;;10.40;;
8640;SDS011;4358;42.100;25.222;2023-06-22T02:45:19;8.83;;;7.93;;
8640;SDS011;4358;42.100;25.222;2023-06-22T02:47:46;7.63;;;6.93;;
8640;SDS011;4358;42.100;25.222;2023-06-22T02:50:14;8.13;;;7.33;;
8640;SDS011;4358;42.100;25.222;2023-06-22T02:52:40;8.17;;;7.37;;
8640;SDS011;4358;42.100;25.222;2023-06-22T02:55:09;7.77;;;7.00;;
8640;SDS011;4358;42.100;25.222;2023-06-22T02:57:35;8.43;;;6.80;;
8640;SDS011;4358;42.100;25.222;2023-06-22T03:00:03;9.60;;;7.20;;
8640;SDS011;4358;42.100;25.222;2023-06-22T03:02:42;9.10;;;7.00;;
8640;SDS011;4358;42.100;25.222;2023-06-22T03:05:08;11.83;;;7.47;;
8640;SDS011;4358;42.100;25.222;2023-06-22T03:07:38;12.20;;;9.80;;
8640;SDS011;4358;42.100;25.222;2023-06-22T03:10:06;8.93;;;8.03;;
8640;SDS011;4358;42.100;25.222;2023-06-22T03:12:36;7.93;;;7.10;;
8640;SDS011;4358;42.100;25.222;2023-06-22T03:15:04;9.40;;;8.50;;
8640;SDS011;4358;42.100;25.222;2023-06-22T03:17:32;12.00;;;10.70;;
8640;SDS011;4358;42.100;25.222;2023-06-22T03:20:00;11.73;;;10.07;;
8640;SDS011;4358;42.100;25.222;2023-06-22T03:22:32;11.23;;;9.53;;
8640;SDS011;4358;42.100;25.222;2023-06-22T03:24:59;10.40;;;9.30;;
8640;SDS011;4358;42.100;25.222;2023-06-22T03:27:27;11.10;;;9.93;;
8640;SDS011;4358;42.100;25.222;2023-06-22T03:29:54;17.80;;;12.27;;
8640;SDS011;4358;42.100;25.222;2023-06-22T03:32:20;15.67;;;14.00;;
8640;SDS011;4358;42.100;25.222;2023-06-22T03:34:47;12.07;;;10.77;;
8640;SDS011;4358;42.100;25.222;2023-06-22T03:37:14;8.37;;;7.07;;
8640;SDS011;4358;42.100;25.222;2023-06-22T03:39:41;9.90;;;7.13;;
8640;SDS011;4358;42.100;25.222;2023-06-22T03:42:08;7.77;;;6.97;;
8640;SDS011;4358;42.100;25.222;2023-06-22T03:44:36;7.80;;;7.10;;
8640;SDS011;4358;42.100;25.222;2023-06-22T03:47:03;8.73;;;7.73;;
8640;SDS011;4358;42.100;25.222;2023-06-22T03:49:32;9.27;;;8.37;;
8640;SDS011;4358;42.100;25.222;2023-06-22T03:51:59;8.80;;;7.73;;
8640;SDS011;4358;42.100;25.222;2023-06-22T03:54:27;9.93;;;8.83;;
8640;SDS011;4358;42.100;25.222;2023-06-22T03:56:54;8.90;;;8.03;;
8640;SDS011;4358;42.100;25.222;2023-06-22T03:59:22;10.27;;;8.20;;
8640;SDS011;4358;42.100;25.222;2023-06-22T04:01:50;10.17;;;9.07;;
8640;SDS011;4358;42.100;25.222;2023-06-22T04:04:17;10.30;;;9.20;;
8640;SDS011;4358;42.100;25.222;2023-06-22T04:06:44;10.83;;;9.80;;
8640;SDS011;4358;42.100;25.222;2023-06-22T04:09:11;10.60;;;9.57;;
8640;SDS011;4358;42.100;25.222;2023-06-22T04:11:38;10.53;;;9.43;;
8640;SDS011;4358;42.100;25.222;2023-06-22T04:14:05;13.17;;;9.87;;
8640;SDS011;4358;42.100;25.222;2023-06-22T04:16:32;11.57;;;10.37;;
8640;SDS011;4358;42.100;25.222;2023-06-22T04:19:00;9.83;;;8.83;;
8640;SDS011;4358;42.100;25.222;2023-06-22T04:21:27;10.73;;;9.63;;
8640;SDS011;4358;42.100;25.222;2023-06-22T04:23:54;11.40;;;9.87;;
8640;SDS011;4358;42.100;25.222;2023-06-22T04:26:21;9.97;;;8.97;;
8640;SDS011;4358;42.100;25.222;2023-06-22T04:28:48;10.07;;;8.97;;
8640;SDS011;4358;42.100;25.222;2023-06-22T04:31:16;10.30;;;9.10;;
8640;SDS011;4358;42.100;25.222;2023-06-22T04:33:44;10.47;;;9.27;;
8640;SDS011;4358;42.100;25.222;2023-06-22T04:36:13;9.53;;;8.60;;
8640;SDS011;4358;42.100;25.222;2023-06-22T04:38:40;10.73;;;9.63;;
8640;SDS011;4358;42.100;25.222;2023-06-22T04:41:07;10.67;;;9.57;;
8640;SDS011;4358;42.100;25.222;2023-06-22T04:43:39;11.97;;;10.00;;
8640;SDS011;4358;42.100;25.222;2023-06-22T04:46:06;15.63;;;9.63;;
8640;SDS011;4358;42.100;25.222;2023-06-22T04:48:32;12.37;;;10.20;;
8640;SDS011;4358;42.100;25.222;2023-06-22T04:50:59;11.30;;;10.20;;
8640;SDS011;4358;42.100;25.222;2023-06-22T04:53:31;11.17;;;9.97;;
8640;SDS011;4358;42.100;25.222;2023-06-22T04:55:58;11.87;;;9.67;;
8640;SDS011;4358;42.100;25.222;2023-06-22T04:58:24;12.33;;;9.80;;
8640;SDS011;4358;42.100;25.222;2023-06-22T05:00:54;12.10;;;10.30;;
8640;SDS011;4358;42.100;25.222;2023-06-22T05:03:22;10.90;;;9.80;;
8640;SDS011;4358;42.100;25.222;2023-06-22T05:05:51;16.53;;;10.43;;
8640;SDS011;4358;42.100;25.222;2023-06-22T05:08:19;10.53;;;9.53;;
8640;SDS011;4358;42.100;25.222;2023-06-22T05:10:47;11.80;;;10.60;;
8640;SDS011;4358;42.100;25.222;2023-06-22T05:13:14;12.50;;;10.20;;
8640;SDS011;4358;42.100;25.222;2023-06-22T05:15:40;12.53;;;10.70;;
8640;SDS011;4358;42.100;25.222;2023-06-22T05:18:07;12.07;;;10.53;;
8640;SDS011;4358;42.100;25.222;2023-06-22T05:20:34;14.07;;;9.67;;
8640;SDS011;4358;42.100;25.222;2023-06-22T05:23:01;10.73;;;9.63;;
8640;SDS011;4358;42.100;25.222;2023-06-22T05:25:28;12.80;;;9.77;;
8640;SDS011;4358;42.100;25.222;2023-06-22T05:27:59;11.13;;;10.00;;
8640;SDS011;4358;42.100;25.222;2023-06-22T05:30:25;11.07;;;10.07;;
8640;SDS011;4358;42.100;25.222;2023-06-22T05:32:53;12.13;;;9.60;;
8640;SDS011;4358;42.100;25.222;2023-06-22T05:35:20;11.67;;;10.30;;
8640;SDS011;4358;42.100;25.222;2023-06-22T05:37:47;13.03;;;11.00;;
8640;SDS011;4358;42.100;25.222;2023-06-22T05:40:14;11.67;;;10.37;;
8640;SDS011;4358;42.100;25.222;2023-06-22T05:42:41;13.33;;;11.03;;
8640;SDS011;4358;42.100;25.222;2023-06-22T05:45:09;11.60;;;10.40;;
8640;SDS011;4358;42.100;25.222;2023-06-22T05:47:36;11.07;;;9.40;;
8640;SDS011;4358;42.100;25.222;2023-06-22T05:50:03;11.67;;;8.73;;
8640;SDS011;4358;42.100;25.222;2023-06-22T05:52:33;9.47;;;8.17;;
8640;SDS011;4358;42.100;25.222;2023-06-22T05:55:01;7.73;;;7.03;;
8640;SDS011;4358;42.100;25.222;2023-06-22T05:57:28;9.60;;;8.20;;
8640;SDS011;4358;42.100;25.222;2023-06-22T05:59:55;9.40;;;7.80;;
8640;SDS011;4358;42.100;25.222;2023-06-22T06:02:23;8.50;;;7.70;;
8640;SDS011;4358;42.100;25.222;2023-06-22T06:04:50;7.57;;;6.87;;
8640;SDS011;4358;42.100;25.222;2023-06-22T06:07:18;7.47;;;6.77;;
8640;SDS011;4358;42.100;25.222;2023-06-22T06:09:44;7.23;;;6.53;;
8640;SDS011;4358;42.100;25.222;2023-06-22T06:12:11;8.20;;;6.87;;
8640;SDS011;4358;42.100;25.222;2023-06-22T06:14:38;7.77;;;6.87;;
8640;SDS011;4358;42.100;25.222;2023-06-22T06:17:05;7.57;;;6.83;;
8640;SDS011;4358;42.100;25.222;2023-06-22T06:19:33;7.53;;;6.77;;
8640;SDS011;4358;42.100;25.222;2023-06-22T06:22:00;8.20;;;6.83;;
8640;SDS011;4358;42.100;25.222;2023-06-22T06:24:27;8.37;;;6.77;;
8640;SDS011;4358;42.100;25.222;2023-06-22T06:26:54;7.50;;;6.57;;
8640;SDS011;4358;42.100;25.222;2023-06-22T06:29:21;7.23;;;6.53;;
8640;SDS011;4358;42.100;25.222;2023-06-22T06:31:48;7.97;;;7.17;;
8640;SDS011;4358;42.100;25.222;2023-06-22T06:34:15;7.73;;;7.03;;
8640;SDS011;4358;42.100;25.222;2023-06-22T06:36:43;7.07;;;6.43;;
8640;SDS011;4358;42.100;25.222;2023-06-22T06:39:10;7.70;;;7.00;;
8640;SDS011;4358;42.100;25.222;2023-06-22T06:41:37;8.10;;;7.20;;
8640;SDS011;4358;42.100;25.222;2023-06-22T06:44:04;7.53;;;6.83;;
8640;SDS011;4358;42.100;25.222;2023-06-22T06:46:30;9.27;;;7.57;;
8640;SDS011;4358;42.100;25.222;2023-06-22T06:48:57;11.50;;;8.00;;
8640;SDS011;4358;42.100;25.222;2023-06-22T06:51:24;8.37;;;7.57;;
8640;SDS011;4358;42.100;25.222;2023-06-22T06:53:52;10.37;;;7.37;;
8640;SDS011;4358;42.100;25.222;2023-06-22T06:56:20;9.10;;;7.97;;
8640;SDS011;4358;42.100;25.222;2023-06-22T06:58:49;8.67;;;7.33;;
8640;SDS011;4358;42.100;25.222;2023-06-22T07:01:32;8.33;;;7.53;;
8640;SDS011;4358;42.100;25.222;2023-06-22T07:04:04;8.63;;;7.83;;
8640;SDS011;4358;42.100;25.222;2023-06-22T07:06:43;8.93;;;7.63;;
8640;SDS011;4358;42.100;25.222;2023-06-22T07:09:12;8.77;;;7.87;;
8640;SDS011;4358;42.100;25.222;2023-06-22T07:11:39;8.40;;;7.60;;
8640;SDS011;4358;42.100;25.222;2023-06-22T07:14:05;8.87;;;8.07;;
8640;SDS011;4358;42.100;25.222;2023-06-22T07:16:32;10.90;;;7.90;;
8640;SDS011;4358;42.100;25.222;2023-06-22T07:18:59;10.27;;;7.93;;
8640;SDS011;4358;42.100;25.222;2023-06-22T07:21:26;9.87;;;8.20;;
8640;SDS011;4358;42.100;25.222;2023-06-22T07:23:52;9.20;;;7.80;;
8640;SDS011;4358;42.100;25.222;2023-06-22T07:26:21;17.50;;;8.23;;
8640;SDS011;4358;42.100;25.222;2023-06-22T07:28:48;8.73;;;7.93;;
8640;SDS011;4358;42.100;25.222;2023-06-22T07:31:16;9.23;;;8.03;;
8640;SDS011;4358;42.100;25.222;2023-06-22T07:33:42;8.70;;;7.93;;
8640;SDS011;4358;42.100;25.222;2023-06-22T07:36:09;8.97;;;8.13;;
8640;SDS011;4358;42.100;25.222;2023-06-22T07:38:36;10.77;;;8.10;;
8640;SDS011;4358;42.100;25.222;2023-06-22T07:41:03;8.57;;;7.70;;
8640;SDS011;4358;42.100;25.222;2023-06-22T07:43:32;8.73;;;7.93;;
8640;SDS011;4358;42.100;25.222;2023-06-22T07:45:59;8.73;;;7.93;;
8640;SDS011;4358;42.100;25.222;2023-06-22T07:48:26;8.73;;;7.93;;
8640;SDS011;4358;42.100;25.222;2023-06-22T07:50:53;8.40;;;7.70;;
8640;SDS011;4358;42.100;25.222;2023-06-22T07:53:20;9.13;;;7.73;;
8640;SDS011;4358;42.100;25.222;2023-06-22T07:55:47;8.77;;;7.53;;
8640;SDS011;4358;42.100;25.222;2023-06-22T07:58:14;7.83;;;7.13;;
8640;SDS011;4358;42.100;25.222;2023-06-22T08:00:45;8.63;;;7.83;;
8640;SDS011;4358;42.100;25.222;2023-06-22T08:03:12;8.33;;;7.50;;
8640;SDS011;4358;42.100;25.222;2023-06-22T08:05:39;7.40;;;6.70;;
8640;SDS011;4358;42.100;25.222;2023-06-22T08:08:06;7.20;;;6.60;;
8640;SDS011;4358;42.100;25.222;2023-06-22T08:10:33;6.90;;;6.20;;
8640;SDS011;4358;42.100;25.222;2023-06-22T08:12:59;7.93;;;7.23;;
8640;SDS011;4358;42.100;25.222;2023-06-22T08:15:26;7.35;;;6.65;;
8640;SDS011;4358;42.100;25.222;2023-06-22T08:17:55;7.45;;;6.75;;
8640;SDS011;4358;42.100;25.222;2023-06-22T08:20:23;7.07;;;6.47;;
8640;SDS011;4358;42.100;25.222;2023-06-22T08:22:49;7.28;;;6.32;;
8640;SDS011;4358;42.100;25.222;2023-06-22T08:25:16;6.85;;;6.25;;
8640;SDS011;4358;42.100;25.222;2023-06-22T08:27:44;6.43;;;5.93;;
8640;SDS011;4358;42.100;25.222;2023-06-22T08:30:12;7.45;;;6.75;;
8640;SDS011;4358;42.100;25.222;2023-06-22T08:32:39;7.20;;;6.60;;
8640;SDS011;4358;42.100;25.222;2023-06-22T08:35:08;7.10;;;6.18;;
8640;SDS011;4358;42.100;25.222;2023-06-22T08:37:35;7.05;;;6.45;;
8640;SDS011;4358;42.100;25.222;2023-06-22T08:40:04;6.53;;;5.93;;
8640;SDS011;4358;42.100;25.222;2023-06-22T08:42:34;6.28;;;5.78;;
8640;SDS011;4358;42.100;25.222;2023-06-22T08:45:01;6.65;;;6.00;;
8640;SDS011;4358;42.100;25.222;2023-06-22T08:47:28;6.35;;;5.80;;
8640;SDS011;4358;42.100;25.222;2023-06-22T08:49:55;6.20;;;5.70;;
8640;SDS011;4358;42.100;25.222;2023-06-22T08:52:23;7.22;;;5.80;;
8640;SDS011;4358;42.100;25.222;2023-06-22T08:54:50;6.38;;;5.70;;
8640;SDS011;4358;42.100;25.222;2023-06-22T08:57:17;6.40;;;5.90;;
8640;SDS011;4358;42.100;25.222;2023-06-22T08:59:44;6.50;;;5.90;;
8640;SDS011;4358;42.100;25.222;2023-06-22T09:02:11;6.55;;;5.43;;
8640;SDS011;4358;42.100;25.222;2023-06-22T09:04:37;8.18;;;5.25;;
8640;SDS011;4358;42.100;25.222;2023-06-22T09:07:04;5.82;;;5.20;;
8640;SDS011;4358;42.100;25.222;2023-06-22T09:09:33;5.60;;;5.13;;
8640;SDS011;4358;42.100;25.222;2023-06-22T09:12:00;5.80;;;5.30;;
8640;SDS011;4358;42.100;25.222;2023-06-22T09:14:27;5.93;;;5.43;;
8640;SDS011;4358;42.100;25.222;2023-06-22T09:16:54;6.13;;;5.63;;
8640;SDS011;4358;42.100;25.222;2023-06-22T09:19:21;8.77;;;5.90;;
8640;SDS011;4358;42.100;25.222;2023-06-22T09:21:48;7.95;;;5.82;;
8640;SDS011;4358;42.100;25.222;2023-06-22T09:24:15;6.30;;;5.80;;
8640;SDS011;4358;42.100;25.222;2023-06-22T09:26:43;8.23;;;5.80;;
8640;SDS011;4358;42.100;25.222;2023-06-22T09:29:10;6.53;;;5.93;;
8640;SDS011;4358;42.100;25.222;2023-06-22T09:31:37;6.25;;;5.65;;
8640;SDS011;4358;42.100;25.222;2023-06-22T09:34:03;6.95;;;6.35;;
8640;SDS011;4358;42.100;25.222;2023-06-22T09:36:30;6.47;;;5.90;;
8640;SDS011;4358;42.100;25.222;2023-06-22T09:38:57;6.40;;;5.72;;
8640;SDS011;4358;42.100;25.222;2023-06-22T09:41:26;6.30;;;5.70;;
8640;SDS011;4358;42.100;25.222;2023-06-22T09:43:54;7.30;;;6.05;;
8640;SDS011;4358;42.100;25.222;2023-06-22T09:46:21;11.35;;;6.15;;
8640;SDS011;4358;42.100;25.222;2023-06-22T09:48:50;10.40;;;6.18;;
8640;SDS011;4358;42.100;25.222;2023-06-22T09:51:17;8.05;;;5.68;;
8640;SDS011;4358;42.100;25.222;2023-06-22T09:53:45;6.45;;;5.95;;
8640;SDS011;4358;42.100;25.222;2023-06-22T09:56:12;6.70;;;6.20;;
8640;SDS011;4358;42.100;25.222;2023-06-22T09:58:40;6.63;;;6.13;;
8640;SDS011;4358;42.100;25.222;2023-06-22T10:01:10;6.18;;;5.68;;
8640;SDS011;4358;42.100;25.222;2023-06-22T10:03:37;6.20;;;5.70;;
8640;SDS011;4358;42.100;25.222;2023-06-22T10:06:04;8.23;;;6.25;;
8640;SDS011;4358;42.100;25.222;2023-06-22T10:08:31;6.28;;;5.68;;
8640;SDS011;4358;42.100;25.222;2023-06-22T10:10:58;7.95;;;5.95;;
8640;SDS011;4358;42.100;25.222;2023-06-22T10:13:25;8.10;;;5.72;;
8640;SDS011;4358;42.100;25.222;2023-06-22T10:15:52;6.55;;;5.95;;
8640;SDS011;4358;42.100;25.222;2023-06-22T10:18:20;7.32;;;6.15;;
8640;SDS011;4358;42.100;25.222;2023-06-22T10:20:47;6.60;;;5.90;;
8640;SDS011;4358;42.100;25.222;2023-06-22T10:23:16;6.70;;;6.00;;
8640;SDS011;4358;42.100;25.222;2023-06-22T10:25:43;6.70;;;6.20;;
8640;SDS011;4358;42.100;25.222;2023-06-22T10:28:10;6.78;;;6.07;;
8640;SDS011;4358;42.100;25.222;2023-06-22T10:30:38;6.53;;;5.93;;
8640;SDS011;4358;42.100;25.222;2023-06-22T10:33:06;6.70;;;6.10;;
8640;SDS011;4358;42.100;25.222;2023-06-22T10:35:34;6.50;;;6.00;;
8640;SDS011;4358;42.100;25.222;2023-06-22T10:38:02;6.28;;;5.75;;
8640;SDS011;4358;42.100;25.222;2023-06-22T10:40:30;6.05;;;5.53;;
8640;SDS011;4358;42.100;25.222;2023-06-22T10:42:57;6.22;;;5.63;;
8640;SDS011;4358;42.100;25.222;2023-06-22T10:45:24;6.32;;;5.72;;
8640;SDS011;4358;42.100;25.222;2023-06-22T10:47:52;6.10;;;5.60;;
8640;SDS011;4358;42.100;25.222;2023-06-22T10:50:19;6.70;;;6.00;;
8640;SDS011;4358;42.100;25.222;2023-06-22T10:52:47;6.45;;;5.93;;
8640;SDS011;4358;42.100;25.222;2023-06-22T10:55:14;6.10;;;5.47;;
8640;SDS011;4358;42.100;25.222;2023-06-22T10:57:41;6.95;;;6.30;;
8640;SDS011;4358;42.100;25.222;2023-06-22T11:00:09;6.57;;;5.97;;
8640;SDS011;4358;42.100;25.222;2023-06-22T11:02:37;6.57;;;5.97;;
8640;SDS011;4358;42.100;25.222;2023-06-22T11:05:04;6.75;;;6.07;;
8640;SDS011;4358;42.100;25.222;2023-06-22T11:07:32;6.95;;;6.35;;
8640;SDS011;4358;42.100;25.222;2023-06-22T11:10:00;6.78;;;6.18;;
8640;SDS011;4358;42.100;25.222;2023-06-22T11:12:27;6.90;;;6.30;;
8640;SDS011;4358;42.100;25.222;2023-06-22T11:14:54;6.70;;;6.10;;
8640;SDS011;4358;42.100;25.222;2023-06-22T11:17:22;7.68;;;7.07;;
8640;SDS011;4358;42.100;25.222;2023-06-22T11:19:50;6.85;;;6.25;;
8640;SDS011;4358;42.100;25.222;2023-06-22T11:22:17;7.05;;;6.35;;
8640;SDS011;4358;42.100;25.222;2023-06-22T11:24:44;6.97;;;6.38;;
8640;SDS011;4358;42.100;25.222;2023-06-22T11:27:12;7.03;;;6.32;;
8640;SDS011;4358;42.100;25.222;2023-06-22T11:29:39;7.28;;;5.90;;
8640;SDS011;4358;42.100;25.222;2023-06-22T11:32:06;7.43;;;6.72;;
8640;SDS011;4358;42.100;25.222;2023-06-22T11:34:33;6.53;;;6.00;;
8640;SDS011;4358;42.100;25.222;2023-06-22T11:37:00;7.40;;;6.80;;
8640;SDS011;4358;42.100;25.222;2023-06-22T11:39:27;7.47;;;6.70;;
8640;SDS011;4358;42.100;25.222;2023-06-22T11:41:54;7.40;;;6.70;;
8640;SDS011;4358;42.100;25.222;2023-06-22T11:44:22;7.38;;;6.70;;
8640;SDS011;4358;42.100;25.222;2023-06-22T11:46:49;11.90;;;6.53;;
8640;SDS011;4358;42.100;25.222;2023-06-22T11:49:15;7.80;;;7.10;;
8640;SDS011;4358;42.100;25.222;2023-06-22T11:51:42;7.70;;;6.78;;
8640;SDS011;4358;42.100;25.222;2023-06-22T11:54:09;8.45;;;7.65;;
8640;SDS011;4358;42.100;25.222;2023-06-22T11:56:36;7.80;;;6.97;;
8640;SDS011;4358;42.100;25.222;2023-06-22T11:59:03;7.97;;;6.82;;
8640;SDS011;4358;42.100;25.222;2023-06-22T12:01:31;6.40;;;5.80;;
8640;SDS011;4358;42.100;25.222;2023-06-22T12:03:59;8.40;;;7.15;;
8640;SDS011;4358;42.100;25.222;2023-06-22T12:06:26;6.78;;;6.18;;
8640;SDS011;4358;42.100;25.222;2023-06-22T12:08:53;6.22;;;5.72;;
8640;SDS011;4358;42.100;25.222;2023-06-22T12:11:19;6.75;;;6.07;;
8640;SDS011;4358;42.100;25.222;2023-06-22T12:13:46;7.38;;;6.78;;
8640;SDS011;4358;42.100;25.222;2023-06-22T12:16:13;6.85;;;5.88;;
8640;SDS011;4358;42.100;25.222;2023-06-22T12:18:41;6.80;;;6.20;;
8640;SDS011;4358;42.100;25.222;2023-06-22T12:21:08;6.50;;;6.00;;
8640;SDS011;4358;42.100;25.222;2023-06-22T12:23:35;6.47;;;5.88;;
8640;SDS011;4358;42.100;25.222;2023-06-22T12:26:02;6.63;;;6.13;;
8640;SDS011;4358;42.100;25.222;2023-06-22T12:28:29;6.75;;;6.10;;
8640;SDS011;4358;42.100;25.222;2023-06-22T12:30:55;7.25;;;6.55;;
8640;SDS011;4358;42.100;25.222;2023-06-22T12:33:22;7.03;;;6.30;;
8640;SDS011;4358;42.100;25.222;2023-06-22T12:35:50;6.68;;;6.15;;
8640;SDS011;4358;42.100;25.222;2023-06-22T12:38:17;6.50;;;6.00;;
8640;SDS011;4358;42.100;25.222;2023-06-22T12:40:44;7.25;;;6.55;;
8640;SDS011;4358;42.100;25.222;2023-06-22T12:43:12;6.10;;;5.63;;
8640;SDS011;4358;42.100;25.222;2023-06-22T12:45:39;8.10;;;6.53;;
8640;SDS011;4358;42.100;25.222;2023-06-22T12:48:06;6.78;;;6.18;;
8640;SDS011;4358;42.100;25.222;2023-06-22T12:50:34;6.50;;;6.00;;
8640;SDS011;4358;42.100;25.222;2023-06-22T12:53:02;6.28;;;5.75;;
8640;SDS011;4358;42.100;25.222;2023-06-22T12:55:29;6.38;;;5.78;;
8640;SDS011;4358;42.100;25.222;2023-06-22T12:57:56;9.13;;;6.35;;
8640;SDS011;4358;42.100;25.222;2023-06-22T13:00:23;8.20;;;6.30;;
8640;SDS011;4358;42.100;25.222;2023-06-22T13:02:50;6.68;;;6.07;;
8640;SDS011;4358;42.100;25.222;2023-06-22T13:05:17;6.75;;;6.10;;
8640;SDS011;4358;42.100;25.222;2023-06-22T13:07:44;6.68;;;6.07;;
8640;SDS011;4358;42.100;25.222;2023-06-22T13:10:12;6.20;;;5.70;;
8640;SDS011;4358;42.100;25.222;2023-06-22T13:12:39;6.75;;;6.15;;
8640;SDS011;4358;42.100;25.222;2023-06-22T13:15:06;7.22;;;6.13;;
8640;SDS011;4358;42.100;25.222;2023-06-22T13:17:33;5.90;;;5.40;;
8640;SDS011;4358;42.100;25.222;2023-06-22T13:20:00;6.63;;;6.03;;
8640;SDS011;4358;42.100;25.222;2023-06-22T13:22:29;6.75;;;6.05;;
8640;SDS011;4358;42.100;25.222;2023-06-22T13:24:56;6.35;;;5.85;;
8640;SDS011;4358;42.100;25.222;2023-06-22T13:27:25;6.82;;;6.22;;
8640;SDS011;4358;42.100;25.222;2023-06-22T13:29:52;6.32;;;5.82;;
8640;SDS011;4358;42.100;25.222;2023-06-22T13:32:19;6.93;;;5.90;;
8640;SDS011;4358;42.100;25.222;2023-06-22T13:34:46;6.47;;;5.97;;
8640;SDS011;4358;42.100;25.222;2023-06-22T13:37:13;6.22;;;5.65;;
8640;SDS011;4358;42.100;25.222;2023-06-22T13:39:40;7.05;;;6.40;;
8640;SDS011;4358;42.100;25.222;2023-06-22T13:42:07;6.38;;;5.88;;
8640;SDS011;4358;42.100;25.222;2023-06-22T13:44:36;6.88;;;6.18;;
8640;SDS011;4358;42.100;25.222;2023-06-22T13:47:02;6.80;;;6.10;;
8640;SDS011;4358;42.100;25.222;2023-06-22T13:49:30;7.90;;;6.50;;
8640;SDS011;4358;42.100;25.222;2023-06-22T13:51:57;7.03;;;6.35;;
8640;SDS011;4358;42.100;25.222;2023-06-22T13:54:24;6.30;;;5.80;;
8640;SDS011;4358;42.100;25.222;2023-06-22T13:56:50;6.20;;;5.55;;
8640;SDS011;4358;42.100;25.222;2023-06-22T13:59:17;11.07;;;6.15;;
8640;SDS011;4358;42.100;25.222;2023-06-22T14:01:47;6.22;;;5.72;;
8640;SDS011;4358;42.100;25.222;2023-06-22T14:04:14;6.97;;;6.35;;
8640;SDS011;4358;42.100;25.222;2023-06-22T14:06:41;7.00;;;6.30;;
8640;SDS011;4358;42.100;25.222;2023-06-22T14:09:08;7.35;;;6.03;;
8640;SDS011;4358;42.100;25.222;2023-06-22T14:11:35;6.85;;;6.28;;
8640;SDS011;4358;42.100;25.222;2023-06-22T14:14:02;6.57;;;5.68;;
8640;SDS011;4358;42.100;25.222;2023-06-22T14:16:29;6.47;;;5.97;;
8640;SDS011;4358;42.100;25.222;2023-06-22T14:18:57;7.90;;;6.40;;
8640;SDS011;4358;42.100;25.222;2023-06-22T14:21:24;7.18;;;6.38;;
8640;SDS011;4358;42.100;25.222;2023-06-22T14:23:51;6.38;;;5.88;;
8640;SDS011;4358;42.100;25.222;2023-06-22T14:26:18;6.30;;;5.70;;
8640;SDS011;4358;42.100;25.222;2023-06-22T14:28:45;6.10;;;5.60;;
8640;SDS011;4358;42.100;25.222;2023-06-22T14:31:13;6.25;;;5.68;;
8640;SDS011;4358;42.100;25.222;2023-06-22T14:33:41;7.00;;;6.15;;
8640;SDS011;4358;42.100;25.222;2023-06-22T14:36:11;6.45;;;5.95;;
8640;SDS011;4358;42.100;25.222;2023-06-22T14:38:38;6.45;;;5.95;;
8640;SDS011;4358;42.100;25.222;2023-06-22T14:41:05;6.10;;;5.50;;
8640;SDS011;4358;42.100;25.222;2023-06-22T14:43:31;6.80;;;6.05;;
8640;SDS011;4358;42.100;25.222;2023-06-22T14:45:58;7.93;;;5.90;;
8640;SDS011;4358;42.100;25.222;2023-06-22T14:48:25;5.85;;;5.35;;
8640;SDS011;4358;42.100;25.222;2023-06-22T14:50:53;7.20;;;6.57;;
8640;SDS011;4358;42.100;25.222;2023-06-22T14:53:21;6.20;;;5.70;;
8640;SDS011;4358;42.100;25.222;2023-06-22T14:55:48;9.52;;;5.93;;
8640;SDS011;4358;42.100;25.222;2023-06-22T14:58:15;6.30;;;5.70;;